Iredell, Texas
Current Conditions -  °F | °C
As of 7:55 AM on Wednesday 26 Nov 2014 (Local Time) from KSEP Reporting Station
Clear Clear  
Wind Chill: 42°   Ceiling: Unl
Heat Index: 46°   Visibility: 10mi
Dew Point: 25°   Wind: 7mph
Humidity: 45%   Direction: 250°WSW
Pressure: 30.14"   Gusts: NA
Location:  31.99°N, 97.87°W
Report Text: KSEP 261355Z AUTO 25006KT 10SM CLR 08/M04 A3014 RMK AO2 T00751038
Loading
Personal Weather Stations






























Interactive Weather Map New forecast layout! Learn more

10-Day Weather Forecast

Advertisements
Track Severe Weather on mobile